Time;durP1;ratioP1;P1;durP2;ratioP2;P2;SDS_P1;SDS_P2;PMS_P1;PMS_P2;Temp;Humidity;BMP_temperature;BMP_pressure;BME280_temperature;BME280_humidity;BME280_pressure;Samples;Min_cycle;Max_cycle;Signal;HPM_P1;HPM_P2
2022/12/10 01:16:05;;;;;;;7.00;4.10;;;;;;;-0.07;95.64;97750.94;99661;1317;614339;-25
2022/12/10 01:18:32;;;;;;;7.60;5.50;;;;;;;1.00;93.59;97734.91;101055;1317;61569;-23
2022/12/10 01:21:03;;;;;;;7.60;5.40;;;;;;;1.98;88.01;97725.70;101401;1310;61666;-23
2022/12/10 01:23:32;;;;;;;9.40;4.10;;;;;;;2.21;84.10;97714.73;101417;1310;73787;-23
2022/12/10 01:26:08;;;;;;;6.60;4.70;;;;;;;2.07;83.28;97706.30;101387;1308;75822;-23
2022/12/10 01:28:36;;;;;;;4.60;3.20;;;;;;;1.80;83.70;97696.26;100838;1306;1346611;-24
2022/12/10 01:31:04;;;;;;;6.10;4.20;;;;;;;1.93;83.65;97696.10;101719;1308;61107;-24
2022/12/10 01:33:32;;;;;;;4.20;3.40;;;;;;;2.16;82.21;97695.08;101716;1307;62086;-24
2022/12/10 01:36:03;;;;;;;3.60;2.90;;;;;;;2.14;81.74;97690.91;101903;1297;73627;-23
2022/12/10 01:38:30;;;;;;;4.80;3.40;;;;;;;1.92;82.20;97688.98;101754;1312;76196;-23
2022/12/10 01:40:58;;;;;;;6.10;4.20;;;;;;;1.84;82.56;97683.02;101857;1304;72656;-24
2022/12/10 01:43:26;;;;;;;5.10;3.20;;;;;;;2.19;81.67;97674.14;101639;1305;61512;-24
2022/12/10 01:45:53;;;;;;;3.70;3.00;;;;;;;2.21;80.78;97665.73;101875;1305;62253;-23
2022/12/10 01:48:20;;;;;;;6.90;4.00;;;;;;;2.06;80.78;97678.44;101855;1305;74674;-23
2022/12/10 01:50:47;;;;;;;4.60;2.60;;;;;;;1.90;81.48;97685.52;101911;1311;75908;-23
2022/12/10 01:53:14;;;;;;;5.40;3.30;;;;;;;2.10;81.98;97676.30;101816;1305;74148;-23
2022/12/10 01:55:47;;;;;;;4.30;3.30;;;;;;;2.55;80.19;97688.60;101911;1304;61795;-23
2022/12/10 01:58:16;;;;;;;3.40;2.80;;;;;;;2.64;79.69;97707.35;101474;1304;61229;-23
2022/12/10 02:00:59;;;;;;;4.40;3.10;;;;;;;2.39;79.64;97713.38;101464;1307;74425;-23
2022/12/10 02:03:42;;;;;;;4.00;3.10;;;;;;;2.09;80.46;97715.05;101808;1306;76006;-23
2022/12/10 02:06:23;;;;;;;4.60;3.20;;;;;;;1.83;81.49;97696.91;101643;1307;74345;-23
2022/12/10 02:09:02;;;;;;;4.50;2.70;;;;;;;2.17;81.15;97693.27;101365;1308;61026;-23
2022/12/10 02:11:33;;;;;;;5.60;3.10;;;;;;;2.42;79.79;97685.91;101423;1312;61905;-23
2022/12/10 02:14:03;;;;;;;4.90;3.50;;;;;;;2.27;79.56;97680.61;101422;1314;74658;-23
2022/12/10 02:16:38;;;;;;;6.30;4.20;;;;;;;2.01;80.43;97659.95;101646;1308;75836;-23
2022/12/10 02:19:30;;;;;;;8.70;5.60;;;;;;;1.74;81.34;97661.08;101469;1308;74107;-23
2022/12/10 02:21:57;;;;;;;6.10;4.70;;;;;;;1.92;81.82;97667.09;101805;1309;61062;-23
2022/12/10 02:24:29;;;;;;;4.70;3.00;;;;;;;2.07;81.09;97670.66;101127;1313;61687;-23
2022/12/10 02:27:08;;;;;;;5.40;3.70;;;;;;;1.94;81.23;97666.42;101324;1306;74574;-23
2022/12/10 02:29:35;;;;;;;5.70;3.60;;;;;;;1.62;82.34;97651.78;101503;1309;75769;-23
2022/12/10 02:32:05;;;;;;;8.80;6.00;;;;;;;1.46;83.43;97650.94;101302;1305;74250;-24
2022/12/10 02:34:36;;;;;;;7.60;5.80;;;;;;;1.76;83.06;97650.55;101391;1308;61199;-23
2022/12/10 02:37:07;;;;;;;8.60;5.70;;;;;;;1.81;82.68;97647.63;101318;1309;61135;-23
2022/12/10 02:39:40;;;;;;;7.40;4.90;;;;;;;1.58;83.30;97632.21;101405;1308;74577;-23
2022/12/10 02:42:07;;;;;;;8.20;5.30;;;;;;;1.33;84.30;97637.78;101382;1309;74904;-23
2022/12/10 02:44:35;;;;;;;8.60;5.90;;;;;;;1.41;85.01;97651.14;101318;1310;74542;-23
2022/12/10 02:47:04;;;;;;;9.10;5.40;;;;;;;1.65;84.29;97671.27;101738;1308;61658;-23
2022/12/10 02:49:34;;;;;;;7.50;4.70;;;;;;;1.57;84.23;97670.23;101661;1308;62112;-23
2022/12/10 02:52:22;;;;;;;6.70;5.00;;;;;;;1.40;84.77;97683.70;101559;1296;74624;-23
2022/12/10 02:54:52;;;;;;;7.20;5.10;;;;;;;1.34;85.71;97686.11;101296;1312;75860;-23
2022/12/10 02:57:44;;;;;;;7.20;4.60;;;;;;;1.70;85.15;97689.23;101699;1305;73059;-23
2022/12/10 03:00:18;;;;;;;5.70;3.70;;;;;;;1.56;85.33;97717.86;101370;1308;61967;-24
2022/12/10 03:03:27;;;;;;;5.70;4.30;;;;;;;1.35;86.36;97710.17;102078;1299;61666;-23
2022/12/10 03:06:14;;;;;;;6.20;4.30;;;;;;;1.40;86.77;97705.75;102229;1301;74942;-24
2022/12/10 03:09:01;;;;;;;7.60;4.90;;;;;;;1.85;85.45;97693.20;102354;1302;75714;-24
2022/12/10 03:11:28;;;;;;;7.30;4.90;;;;;;;1.87;84.71;97680.27;101954;1304;73175;-25
2022/12/10 03:14:08;;;;;;;8.10;4.90;;;;;;;1.64;84.92;97676.48;102398;1291;61216;-24
2022/12/10 03:16:40;;;;;;;5.50;3.70;;;;;;;1.35;85.94;97671.52;102240;1286;62071;-25
2022/12/10 03:19:14;;;;;;;7.70;4.30;;;;;;;1.70;86.12;97668.88;102249;1299;74748;-22
2022/12/10 03:21:41;;;;;;;9.00;5.40;;;;;;;2.17;84.70;97659.05;101946;1301;74989;-22
2022/12/10 03:24:09;;;;;;;8.60;5.90;;;;;;;2.13;84.10;97646.63;102344;1297;74293;-22
2022/12/10 03:26:39;;;;;;;19.90;10.60;;;;;;;1.87;84.77;97637.13;102198;1300;61132;-25
2022/12/10 03:29:08;;;;;;;13.10;7.60;;;;;;;1.57;85.84;97638.93;101975;1305;61840;-24
2022/12/10 03:31:35;;;;;;;13.70;6.70;;;;;;;1.43;86.95;97636.45;102262;1300;74694;-25
2022/12/10 03:34:03;;;;;;;8.30;5.80;;;;;;;1.88;86.70;97630.90;102188;1295;75692;-25
2022/12/10 03:36:30;;;;;;;8.60;5.30;;;;;;;2.06;85.61;97622.46;102145;1301;74034;-24
2022/12/10 03:38:57;;;;;;;7.00;4.70;;;;;;;1.95;85.71;97626.49;101922;1303;61674;-25
2022/12/10 03:41:25;;;;;;;8.70;5.60;;;;;;;1.73;86.22;97628.48;102313;1298;61849;-25
2022/12/10 03:43:56;;;;;;;7.00;4.20;;;;;;;1.53;86.83;97633.08;102289;1301;74574;-25
2022/12/10 03:46:24;;;;;;;10.40;5.10;;;;;;;1.71;87.07;97618.49;102267;1302;75778;-25
2022/12/10 03:48:51;;;;;;;21.50;7.40;;;;;;;2.24;86.21;97612.52;101983;1303;74188;-25
2022/12/10 03:51:20;;;;;;;32.60;9.80;;;;;;;2.35;85.22;97613.76;102375;1299;61726;-25
2022/12/10 03:53:48;;;;;;;11.10;6.10;;;;;;;2.21;85.38;97611.52;102353;1298;61781;-24
2022/12/10 03:56:18;;;;;;;14.10;6.80;;;;;;;1.91;86.27;97607.59;102369;1297;74522;-24
2022/12/10 03:58:46;;;;;;;15.80;6.70;;;;;;;1.68;86.90;97609.48;102063;1299;75829;-25
2022/12/10 04:01:13;;;;;;;12.00;6.50;;;;;;;1.91;87.40;97605.34;102352;1299;74328;-25
2022/12/10 04:03:41;;;;;;;13.70;7.40;;;;;;;2.40;86.14;97605.40;101940;1297;61945;-24
2022/12/10 04:06:15;;;;;;;11.60;6.50;;;;;;;2.44;85.38;97610.58;102355;1299;61848;-24
2022/12/10 04:08:42;;;;;;;13.20;6.20;;;;;;;2.24;85.63;97607.19;102116;1302;75168;-22
2022/12/10 04:11:10;;;;;;;8.80;6.40;;;;;;;1.96;86.60;97606.02;102366;1297;75745;-22
2022/12/10 04:16:26;;;;;;;11.90;6.00;;;;;;;2.41;86.61;97611.63;102344;1291;61968;-22
2022/12/10 04:19:01;;;;;;;11.00;5.70;;;;;;;2.47;85.67;97598.34;102141;1303;61762;-22
2022/12/10 04:27:05;;;;;;;8.40;4.80;;;;;;;1.91;87.01;97611.30;102216;1299;73248;-22
2022/12/10 04:29:32;;;;;;;6.50;3.70;;;;;;;2.41;86.68;97614.40;101970;1304;61171;-22
2022/12/10 04:31:59;;;;;;;7.40;4.40;;;;;;;2.64;85.37;97604.70;102367;1298;61709;-22
2022/12/10 04:34:26;;;;;;;9.80;6.10;;;;;;;2.51;85.27;97593.14;102370;1291;74720;-22
2022/12/10 04:36:53;;;;;;;10.60;6.70;;;;;;;2.28;85.67;97595.05;102412;1297;75777;-21
2022/12/10 04:39:22;;;;;;;10.60;5.50;;;;;;;2.04;86.33;97597.77;102398;1298;73079;-21
2022/12/10 04:41:49;;;;;;;10.40;6.20;;;;;;;1.96;87.23;97590.63;102347;1291;61819;-21
2022/12/10 04:44:17;;;;;;;6.90;4.40;;;;;;;2.44;86.68;97593.77;102356;1291;61738;-23
2022/12/10 04:46:44;;;;;;;10.80;7.10;;;;;;;2.65;85.75;97589.73;101949;1304;73520;-24
2022/12/10 04:49:11;;;;;;;14.60;9.20;;;;;;;2.53;85.41;97581.66;102033;1298;74249;-24
2022/12/10 04:51:38;;;;;;;13.80;8.10;;;;;;;2.29;85.68;97575.66;102378;1299;74204;-24
2022/12/10 04:54:05;;;;;;;13.50;6.20;;;;;;;2.02;86.43;97576.02;102284;1298;61053;-24
2022/12/10 04:56:33;;;;;;;18.90;10.20;;;;;;;2.20;87.11;97569.60;102289;1297;61873;-25
2022/12/10 04:59:00;;;;;;;13.60;7.60;;;;;;;2.65;85.90;97560.45;102177;1295;74460;-23
2022/12/10 05:01:28;;;;;;;14.10;8.20;;;;;;;2.65;84.91;97552.57;102377;1298;75877;-21
2022/12/10 05:03:58;;;;;;;12.60;8.00;;;;;;;2.41;84.98;97545.52;102344;1293;74499;-21
2022/12/10 05:06:25;;;;;;;10.50;5.70;;;;;;;2.15;85.81;97544.30;102022;1299;61627;-21
2022/12/10 05:08:52;;;;;;;5.30;3.10;;;;;;;1.97;86.58;97537.02;102309;1299;61764;-22
2022/12/10 05:11:20;;;;;;;13.50;6.60;;;;;;;2.35;86.41;97524.69;102318;1294;74967;-22
2022/12/10 05:13:52;;;;;;;15.00;7.00;;;;;;;2.62;85.37;97528.24;102262;1301;75737;-21
2022/12/10 05:16:20;;;;;;;20.40;9.40;;;;;;;2.52;85.03;97530.38;101911;1294;74271;-21
2022/12/10 05:18:48;;;;;;;20.00;9.50;;;;;;;2.29;85.55;97526.69;102136;1295;61994;-21
2022/12/10 05:21:17;;;;;;;12.90;7.30;;;;;;;2.04;86.34;97525.69;102463;1299;61899;-21
2022/12/10 05:23:45;;;;;;;15.70;6.60;;;;;;;2.10;87.02;97523.58;102287;1300;73824;-21
2022/12/10 05:26:23;;;;;;;22.10;9.80;;;;;;;2.54;86.01;97521.86;102178;1301;76076;-21
2022/12/10 05:28:55;;;;;;;17.00;9.90;;;;;;;2.58;85.25;97523.09;102035;1303;74399;-21
2022/12/10 05:31:23;;;;;;;13.90;8.10;;;;;;;2.40;85.53;97529.49;102176;1295;61896;-21
2022/12/10 05:33:51;;;;;;;14.00;7.00;;;;;;;2.18;86.29;97531.20;102200;1301;61929;-21
2022/12/10 05:36:21;;;;;;;5.60;2.40;;;;;;;1.98;86.62;97531.94;102214;1301;75230;-21
2022/12/10 05:38:48;;;;;;;5.70;3.70;;;;;;;2.40;86.73;97525.08;102170;1302;74808;-20
2022/12/10 05:41:20;;;;;;;6.60;4.00;;;;;;;2.86;85.29;97524.33;102109;1301;74363;-20
2022/12/10 05:43:47;;;;;;;8.70;4.90;;;;;;;2.85;84.47;97531.02;102167;1298;61965;-20
2022/12/10 05:46:23;;;;;;;9.40;4.50;;;;;;;2.63;84.92;97526.66;102254;1292;61804;-20
2022/12/10 05:48:50;;;;;;;5.90;3.50;;;;;;;2.30;85.90;97514.30;102168;1301;74470;-20
2022/12/10 05:51:24;;;;;;;9.80;5.10;;;;;;;2.10;87.21;97509.56;102410;1291;75857;-20
2022/12/10 05:53:51;;;;;;;11.00;6.30;;;;;;;2.52;86.88;97504.61;102124;1301;74454;-20
2022/12/10 05:56:20;;;;;;;8.30;5.70;;;;;;;2.64;85.84;97497.29;101982;1297;61813;-20
2022/12/10 05:58:49;;;;;;;7.10;5.10;;;;;;;2.48;86.02;97500.33;102033;1299;61813;-19
2022/12/10 06:01:18;;;;;;;8.30;5.20;;;;;;;2.25;86.88;97497.89;102160;1299;75423;-21
2022/12/10 06:03:45;;;;;;;7.00;4.10;;;;;;;2.15;87.61;97497.01;102065;1297;75818;-20
2022/12/10 06:06:13;;;;;;;6.80;4.70;;;;;;;2.58;87.07;97494.98;102009;1300;74348;-20
2022/12/10 06:08:40;;;;;;;8.90;2.50;;;;;;;2.75;86.14;97492.19;102363;1292;61149;-19
2022/12/10 06:11:09;;;;;;;9.60;5.10;;;;;;;2.59;86.26;97489.24;102384;1298;62091;-19
2022/12/10 06:13:37;;;;;;;10.00;5.00;;;;;;;2.35;87.11;97489.80;102167;1281;75341;-19
2022/12/10 06:16:08;;;;;;;6.80;4.30;;;;;;;2.29;87.57;97499.26;102373;1298;75762;-20
2022/12/10 06:18:36;;;;;;;7.40;4.50;;;;;;;2.78;86.82;97504.82;102027;1302;74093;-19
2022/12/10 06:21:04;;;;;;;8.50;4.10;;;;;;;2.97;85.99;97509.41;102217;1297;61031;-20
2022/12/10 06:23:31;;;;;;;6.90;4.20;;;;;;;2.84;85.66;97504.92;101987;1299;61181;-20
2022/12/10 06:25:59;;;;;;;5.20;3.00;;;;;;;2.61;86.10;97503.14;102416;1291;75375;-20
2022/12/10 06:28:25;;;;;;;5.30;3.20;;;;;;;2.36;86.86;97507.71;102308;1299;75934;-21
2022/12/10 06:30:53;;;;;;;6.30;3.90;;;;;;;2.48;87.67;97501.35;102331;1297;74327;-20
2022/12/10 06:33:20;;;;;;;6.70;4.30;;;;;;;2.94;86.63;97500.23;102371;1283;61755;-21
2022/12/10 06:35:47;;;;;;;7.30;5.00;;;;;;;2.97;85.95;97503.61;102257;1298;61959;-20
2022/12/10 06:38:14;;;;;;;5.60;3.80;;;;;;;2.76;86.14;97500.48;102312;1298;74974;-20
2022/12/10 06:40:41;;;;;;;5.20;3.80;;;;;;;2.55;86.87;97512.84;102252;1292;75795;-19
2022/12/10 06:43:09;;;;;;;6.30;3.30;;;;;;;2.68;87.22;97513.45;102289;1291;74241;-20
2022/12/10 06:45:40;;;;;;;5.50;3.60;;;;;;;3.10;86.10;97504.33;102345;1298;61721;-20
2022/12/10 06:48:08;;;;;;;6.20;4.00;;;;;;;3.10;85.50;97500.35;102037;1300;61643;-20
2022/12/10 06:50:35;;;;;;;9.20;4.20;;;;;;;2.93;85.67;97502.02;102353;1293;75370;-20
2022/12/10 06:53:02;;;;;;;8.70;4.80;;;;;;;2.68;86.45;97495.45;102330;1298;75796;-20
2022/12/10 06:55:29;;;;;;;6.70;3.90;;;;;;;2.61;87.31;97489.40;102358;1298;74270;-21
2022/12/10 06:57:57;;;;;;;4.50;2.90;;;;;;;3.03;86.81;97495.77;102077;1299;61922;-20
2022/12/10 07:00:24;;;;;;;7.70;3.80;;;;;;;3.12;85.84;97492.84;102301;1299;61871;-20
2022/12/10 07:02:51;;;;;;;4.10;3.00;;;;;;;2.99;85.84;97483.74;102360;1299;74947;-20
2022/12/10 07:05:19;;;;;;;7.80;3.70;;;;;;;2.73;86.38;97477.55;102336;1299;76044;-20
2022/12/10 07:07:46;;;;;;;7.00;3.40;;;;;;;2.65;86.96;97472.52;102223;1294;74227;-20
2022/12/10 07:10:14;;;;;;;6.10;3.50;;;;;;;3.15;86.62;97467.77;102376;1299;61712;-20
2022/12/10 07:12:41;;;;;;;6.50;3.70;;;;;;;3.35;85.27;97468.65;102406;1298;61317;-20
2022/12/10 07:15:08;;;;;;;4.30;3.20;;;;;;;3.23;85.33;97466.32;102395;1292;75246;-20
2022/12/10 07:17:35;;;;;;;7.20;3.50;;;;;;;2.96;85.87;97462.69;102305;1299;74532;-20
2022/12/10 07:20:04;;;;;;;6.10;3.40;;;;;;;2.71;86.53;97462.28;102386;1298;74239;-20
2022/12/10 07:22:31;;;;;;;4.80;3.40;;;;;;;2.96;86.75;97467.79;102196;1302;61914;-20
2022/12/10 07:24:58;;;;;;;6.00;4.00;;;;;;;3.35;85.73;97470.04;102351;1298;62505;-20
2022/12/10 07:27:26;;;;;;;6.40;4.20;;;;;;;3.33;85.10;97470.02;102373;1298;75286;-20
2022/12/10 07:29:53;;;;;;;5.30;3.60;;;;;;;3.12;85.33;97477.08;102379;1298;75847;-20
2022/12/10 07:32:20;;;;;;;4.30;2.80;;;;;;;2.86;86.10;97470.64;102267;1297;74236;-20
2022/12/10 07:34:47;;;;;;;5.30;3.40;;;;;;;2.75;87.11;97468.56;102331;1297;62617;-20
2022/12/10 07:37:13;;;;;;;6.10;3.10;;;;;;;3.19;86.64;97462.30;102303;1291;61188;-20
2022/12/10 07:39:42;;;;;;;4.40;3.20;;;;;;;3.38;85.57;97464.81;102286;1298;75156;-20
2022/12/10 07:42:09;;;;;;;4.30;2.80;;;;;;;3.27;85.30;97463.62;102344;1298;75804;-20
2022/12/10 07:44:37;;;;;;;4.90;3.50;;;;;;;2.99;86.08;97467.73;102091;1301;74330;-20
2022/12/10 07:47:04;;;;;;;4.20;2.50;;;;;;;2.85;86.94;97476.03;102314;1298;62613;-20
2022/12/10 07:49:31;;;;;;;4.70;2.70;;;;;;;3.27;86.61;97477.48;101951;1304;61743;-20
2022/12/10 07:51:59;;;;;;;3.60;2.50;;;;;;;3.53;85.22;97473.98;102323;1299;75644;-20
2022/12/10 07:54:26;;;;;;;4.70;2.80;;;;;;;3.43;85.09;97481.42;102349;1298;76715;-20
2022/12/10 07:56:55;;;;;;;3.70;2.50;;;;;;;3.18;85.63;97471.82;102323;1292;74216;-20
2022/12/10 07:59:22;;;;;;;3.90;2.30;;;;;;;2.93;86.30;97467.06;102321;1291;61579;-20
2022/12/10 08:01:49;;;;;;;4.80;2.70;;;;;;;3.12;86.71;97473.34;102364;1284;61966;-20
2022/12/10 08:04:16;;;;;;;7.50;3.40;;;;;;;3.44;85.70;97473.11;102344;1291;74969;-20
2022/12/10 08:06:43;;;;;;;5.10;3.00;;;;;;;3.41;85.20;97473.67;102367;1291;75554;-20
2022/12/10 08:09:11;;;;;;;5.50;2.60;;;;;;;3.20;85.67;97477.04;102340;1291;74025;-23
2022/12/10 08:11:38;;;;;;;4.10;3.00;;;;;;;2.96;86.44;97475.56;102221;1301;61062;-22
2022/12/10 08:14:05;;;;;;;4.30;2.70;;;;;;;3.15;87.20;97482.17;102330;1298;61947;-21
2022/12/10 08:16:33;;;;;;;4.70;3.20;;;;;;;3.58;86.00;97484.42;102316;1291;75244;-19
2022/12/10 08:19:01;;;;;;;4.20;2.80;;;;;;;3.62;85.41;97486.03;102144;1301;75966;-19
2022/12/10 08:21:30;;;;;;;5.40;3.30;;;;;;;3.44;85.41;97487.70;102352;1294;74350;-19
2022/12/10 08:23:57;;;;;;;4.40;3.00;;;;;;;3.28;86.13;97495.27;102195;1299;61170;-21
2022/12/10 08:26:26;;;;;;;5.50;2.90;;;;;;;3.30;86.74;97494.92;102155;1301;61200;-21
2022/12/10 08:28:53;;;;;;;3.40;1.70;;;;;;;3.82;85.72;97499.05;102155;1299;73509;-21
2022/12/10 08:31:21;;;;;;;6.90;4.00;;;;;;;4.05;84.52;97498.48;102217;1301;75114;-21
2022/12/10 08:33:48;;;;;;;5.00;3.60;;;;;;;4.05;84.69;97496.74;102392;1299;74255;-21
2022/12/10 08:36:17;;;;;;;3.20;2.40;;;;;;;3.89;84.59;97504.79;102364;1293;61968;-21
2022/12/10 08:38:44;;;;;;;5.70;3.30;;;;;;;3.64;85.10;97508.66;102346;1291;61796;-21
2022/12/10 08:41:14;;;;;;;5.00;3.10;;;;;;;3.67;85.72;97499.98;102343;1292;75410;-21
2022/12/10 08:43:41;;;;;;;7.60;4.40;;;;;;;4.12;84.84;97495.79;102063;1297;74785;-21
2022/12/10 08:46:09;;;;;;;8.10;4.50;;;;;;;4.19;83.95;97487.53;102107;1298;72362;-22
2022/12/10 08:48:37;;;;;;;7.30;4.70;;;;;;;3.98;84.03;97487.47;102094;1298;62849;-21
2022/12/10 08:51:05;;;;;;;6.10;3.90;;;;;;;3.72;84.34;97491.75;102357;1291;61718;-21
2022/12/10 08:53:32;;;;;;;4.10;2.40;;;;;;;3.53;85.11;97488.77;102324;1298;75385;-21
2022/12/10 08:55:59;;;;;;;5.70;3.50;;;;;;;3.87;84.99;97484.91;102021;1292;75611;-21
2022/12/10 08:58:26;;;;;;;5.70;3.50;;;;;;;4.30;83.85;97476.89;102333;1298;74247;-22
2022/12/10 09:00:54;;;;;;;5.80;3.60;;;;;;;4.35;83.36;97479.09;102159;1298;61913;-21
2022/12/10 09:03:21;;;;;;;6.00;3.80;;;;;;;4.16;83.34;97472.33;102339;1299;61895;-21
2022/12/10 09:05:48;;;;;;;5.10;3.00;;;;;;;3.90;83.86;97469.52;102380;1298;75239;-22
2022/12/10 09:08:15;;;;;;;5.40;2.50;;;;;;;3.68;84.51;97463.05;102332;1299;75711;-22
2022/12/10 09:10:43;;;;;;;7.10;3.90;;;;;;;3.99;84.41;97458.03;102341;1292;74416;-22
2022/12/10 09:13:10;;;;;;;4.00;2.60;;;;;;;4.23;83.59;97460.09;102383;1298;61680;-22
2022/12/10 09:15:37;;;;;;;8.10;4.00;;;;;;;4.17;83.44;97455.38;102310;1298;61770;-22
2022/12/10 09:18:04;;;;;;;5.30;3.50;;;;;;;3.98;83.79;97453.33;102302;1282;75607;-22
2022/12/10 09:20:31;;;;;;;7.30;3.10;;;;;;;3.71;84.44;97444.63;102128;1301;75669;-22
2022/12/10 09:22:58;;;;;;;5.00;3.10;;;;;;;3.79;84.99;97443.82;102314;1298;74264;-22
2022/12/10 09:25:26;;;;;;;5.30;3.20;;;;;;;4.26;84.40;97438.17;102367;1298;61840;-23
2022/12/10 09:27:52;;;;;;;4.60;3.50;;;;;;;4.35;83.57;97443.83;102209;1302;61855;-22
2022/12/10 09:30:21;;;;;;;4.40;3.10;;;;;;;4.22;83.85;97445.01;102364;1291;75513;-22
2022/12/10 09:32:48;;;;;;;5.00;2.60;;;;;;;4.01;84.11;97442.78;102341;1298;75938;-22
2022/12/10 09:35:16;;;;;;;6.50;3.00;;;;;;;3.87;85.02;97444.42;102342;1292;74605;-22
2022/12/10 09:37:43;;;;;;;5.00;3.20;;;;;;;4.28;84.94;97439.95;102347;1298;61946;-22
2022/12/10 09:40:15;;;;;;;6.30;3.70;;;;;;;4.54;83.70;97434.42;102350;1298;61804;-22
2022/12/10 09:42:51;;;;;;;6.60;4.40;;;;;;;4.44;83.60;97431.94;102156;1299;75717;-22
2022/12/10 09:45:18;;;;;;;7.30;4.40;;;;;;;4.26;84.31;97428.38;102106;1301;75840;-22
2022/12/10 09:47:49;;;;;;;4.70;2.60;;;;;;;4.13;85.05;97424.46;102295;1291;74429;-26
2022/12/10 09:50:18;;;;;;;6.30;3.60;;;;;;;4.50;85.06;97422.62;102034;1299;61953;-24
2022/12/10 09:52:48;;;;;;;5.20;4.00;;;;;;;4.74;83.51;97422.58;102334;1291;61625;-23
2022/12/10 09:55:20;;;;;;;5.30;3.00;;;;;;;4.57;83.46;97429.17;102085;1298;73991;-23
2022/12/10 09:57:51;;;;;;;5.80;3.50;;;;;;;4.34;84.38;97425.18;102191;1298;74739;-23
2022/12/10 10:00:29;;;;;;;6.60;4.00;;;;;;;4.20;85.07;97418.95;102013;1302;74082;-23
2022/12/10 10:03:00;;;;;;;5.20;3.50;;;;;;;4.53;84.95;97421.98;102150;1285;61806;-22
2022/12/10 10:05:40;;;;;;;5.10;2.90;;;;;;;4.83;83.51;97426.54;102149;1301;61725;-22
2022/12/10 10:08:32;;;;;;;6.10;3.70;;;;;;;4.71;83.46;97429.06;101942;1298;75282;-22
2022/12/10 10:11:00;;;;;;;9.50;4.30;;;;;;;4.49;84.17;97429.82;102383;1291;75580;-22
2022/12/10 10:13:45;;;;;;;6.50;3.90;;;;;;;4.25;84.79;97425.92;102161;1298;73391;-22
2022/12/10 10:16:31;;;;;;;4.80;2.50;;;;;;;4.47;85.07;97430.36;102225;1301;61250;-23
2022/12/10 10:18:59;;;;;;;7.50;4.70;;;;;;;4.57;84.40;97428.95;102220;1302;61952;-22
2022/12/10 10:21:33;;;;;;;9.30;4.90;;;;;;;4.43;84.80;97435.95;102139;1294;75414;-22
2022/12/10 10:24:00;;;;;;;12.90;7.40;;;;;;;4.21;85.48;97439.33;101971;1304;75972;-22
2022/12/10 10:26:28;;;;;;;5.70;3.50;;;;;;;4.23;86.23;97446.36;102226;1301;74122;-22
2022/12/10 10:28:59;;;;;;;10.30;6.00;;;;;;;4.73;85.78;97450.36;102363;1298;61938;-22
2022/12/10 10:31:28;;;;;;;11.30;5.80;;;;;;;5.34;83.48;97444.98;102013;1299;61072;-22
2022/12/10 10:34:04;;;;;;;12.00;6.90;;;;;;;5.37;82.34;97446.54;102086;1298;74223;-23
2022/12/10 10:36:33;;;;;;;12.30;6.90;;;;;;;5.16;82.46;97451.94;102175;1298;75690;-23
2022/12/10 10:39:11;;;;;;;15.50;9.70;;;;;;;4.98;83.37;97453.64;102045;1299;73371;-22
2022/12/10 10:41:39;;;;;;;11.00;6.30;;;;;;;4.77;83.75;97456.53;102360;1299;61085;-22
2022/12/10 10:44:14;;;;;;;11.40;6.30;;;;;;;4.79;84.53;97456.56;102272;1302;61703;-23
2022/12/10 10:46:41;;;;;;;12.00;6.30;;;;;;;5.37;82.96;97453.66;101984;1298;75302;-24
2022/12/10 10:49:44;;;;;;;8.40;5.60;;;;;;;5.39;82.18;97449.47;102255;1298;75838;-23
2022/12/10 10:52:14;;;;;;;10.10;4.70;;;;;;;5.35;82.36;97449.52;101577;1307;74243;-23
2022/12/10 10:54:42;;;;;;;10.20;7.00;;;;;;;4.99;82.55;97455.61;101306;1310;61181;-23
2022/12/10 10:57:34;;;;;;;10.50;5.50;;;;;;;4.72;83.79;97457.69;101461;1309;61875;-24
2022/12/10 11:00:11;;;;;;;10.10;4.60;;;;;;;4.83;84.13;97457.48;101482;1302;74957;-23
2022/12/10 11:02:41;;;;;;;9.60;5.60;;;;;;;5.27;82.79;97456.70;101365;1307;75636;-23
2022/12/10 11:05:29;;;;;;;14.50;8.90;;;;;;;5.13;82.30;97456.98;101702;1306;74228;-23
2022/12/10 11:08:12;;;;;;;10.90;6.40;;;;;;;4.93;83.39;97471.05;101597;1301;61797;-23
2022/12/10 11:10:55;;;;;;;9.90;5.90;;;;;;;4.78;84.07;97483.10;101428;1303;61277;-24
2022/12/10 11:13:26;;;;;;;7.30;4.50;;;;;;;4.61;84.45;97478.19;101527;1310;75413;-23
2022/12/10 11:15:59;;;;;;;6.50;3.90;;;;;;;4.95;84.38;97474.84;101550;1307;75783;-24
2022/12/10 11:18:29;;;;;;;10.70;5.90;;;;;;;5.42;83.27;97467.19;101584;1308;74169;-24
2022/12/10 11:21:23;;;;;;;11.20;5.90;;;;;;;5.42;82.81;97467.31;101512;1314;61904;-24
2022/12/10 11:23:54;;;;;;;9.20;6.20;;;;;;;5.20;83.11;97469.70;101617;1307;61049;-23
2022/12/10 11:26:36;;;;;;;10.90;6.80;;;;;;;4.91;83.99;97472.42;101568;1302;75424;-24
2022/12/10 11:29:20;;;;;;;10.20;4.60;;;;;;;4.69;84.61;97480.41;102200;1294;75791;-24
2022/12/10 11:32:13;;;;;;;8.50;4.70;;;;;;;4.50;85.56;97477.63;102354;1302;74310;-24
2022/12/10 11:35:16;;;;;;;11.20;5.80;;;;;;;5.20;84.42;97479.00;102396;1298;61085;-24
2022/12/10 11:38:19;;;;;;;11.10;5.40;;;;;;;5.71;83.02;97475.58;102301;1301;62050;-24
2022/12/10 11:41:15;;;;;;;11.00;6.40;;;;;;;5.55;82.62;97475.02;102094;1299;75552;-25
2022/12/10 11:43:47;;;;;;;12.80;7.90;;;;;;;5.09;83.21;97471.45;102360;1291;75765;-25
2022/12/10 11:46:23;;;;;;;14.90;8.40;;;;;;;4.79;84.38;97467.10;102151;1299;74206;-24
2022/12/10 11:49:03;;;;;;;7.90;4.50;;;;;;;4.64;85.28;97466.77;102246;1294;62570;-25
2022/12/10 11:52:04;;;;;;;8.40;4.70;;;;;;;5.24;85.13;97468.48;102261;1301;61846;-25
2022/12/10 11:54:41;;;;;;;11.00;5.70;;;;;;;5.83;82.85;97479.83;102128;1294;75432;-23
2022/12/10 11:57:23;;;;;;;13.40;8.30;;;;;;;5.73;82.08;97480.14;102011;1297;75853;-23
2022/12/10 11:59:59;;;;;;;20.60;11.70;;;;;;;5.20;82.41;97480.85;102299;1299;74148;-23
2022/12/10 12:02:50;;;;;;;23.30;14.30;;;;;;;4.81;84.00;97479.95;102246;1298;61938;-23
2022/12/10 12:05:37;;;;;;;11.90;7.00;;;;;;;4.54;85.54;97479.11;102177;1302;61746;-23
2022/12/10 12:08:42;;;;;;;11.30;6.80;;;;;;;4.86;84.95;97478.84;102292;1298;74949;-23
2022/12/10 12:11:25;;;;;;;12.00;6.90;;;;;;;5.21;83.84;97475.65;102364;1292;75788;-23
2022/12/10 12:14:06;;;;;;;12.30;7.20;;;;;;;5.08;83.24;97481.51;102299;1299;74212;-23
2022/12/10 12:16:37;;;;;;;13.30;7.50;;;;;;;4.86;83.71;97472.14;101951;1298;61750;-23
2022/12/10 12:19:16;;;;;;;12.00;7.60;;;;;;;4.64;83.91;97471.91;101937;1297;61330;-23
2022/12/10 12:21:43;;;;;;;10.80;5.80;;;;;;;4.46;84.15;97467.04;102222;1302;75211;-23
2022/12/10 12:24:33;;;;;;;14.30;7.70;;;;;;;4.89;83.91;97462.44;102372;1299;75824;-24
2022/12/10 12:27:05;;;;;;;13.00;7.40;;;;;;;5.36;82.47;97462.81;102204;1295;74153;-24
2022/12/10 12:29:46;;;;;;;10.50;6.70;;;;;;;5.31;81.79;97471.02;101955;1298;61932;-23
2022/12/10 12:32:45;;;;;;;9.00;6.40;;;;;;;5.04;82.18;97477.38;102260;1299;61971;-23
2022/12/10 12:35:16;;;;;;;9.60;6.20;;;;;;;4.69;83.02;97480.05;102181;1292;75436;-23
2022/12/10 12:38:15;;;;;;;10.70;6.30;;;;;;;4.31;84.51;97499.15;102112;1294;75832;-23
2022/12/10 12:40:58;;;;;;;9.60;6.10;;;;;;;4.71;85.01;97496.56;102137;1301;74326;-23
2022/12/10 12:43:35;;;;;;;9.90;6.50;;;;;;;5.01;83.50;97504.43;102223;1294;61273;-24
2022/12/10 12:46:04;;;;;;;12.10;7.20;;;;;;;4.80;83.83;97507.70;102247;1301;61918;-23
2022/12/10 12:48:41;;;;;;;13.10;7.60;;;;;;;4.52;84.59;97513.91;102184;1297;75185;-23
2022/12/10 12:51:29;;;;;;;8.70;6.00;;;;;;;4.29;84.76;97505.13;102283;1299;75715;-23
2022/12/10 12:53:56;;;;;;;8.70;6.20;;;;;;;4.38;85.41;97492.05;102265;1294;73100;-24
2022/12/10 12:57:07;;;;;;;12.10;6.70;;;;;;;4.91;84.33;97479.63;102343;1298;61685;-23
2022/12/10 12:59:49;;;;;;;8.20;5.40;;;;;;;5.00;83.42;97487.88;102361;1292;61691;-23
2022/12/10 13:02:22;;;;;;;12.80;7.10;;;;;;;4.77;83.23;97498.48;102295;1291;75223;-23
2022/12/10 13:04:50;;;;;;;;;;;;;;;4.49;83.72;97507.35;102170;1286;75954;-23
2022/12/10 13:07:20;;;;;;;7.60;5.20;;;;;;;4.16;84.79;97513.88;102386;1293;73556;-23
2022/12/10 13:09:49;;;;;;;11.70;6.30;;;;;;;4.33;85.53;97507.72;102143;1298;61151;-23
2022/12/10 13:12:31;;;;;;;12.20;7.60;;;;;;;4.72;84.79;97508.88;101943;1303;61809;-23
2022/12/10 13:14:58;;;;;;;13.70;7.30;;;;;;;4.78;84.55;97502.77;101933;1298;74361;-24
2022/12/10 13:17:38;;;;;;;11.80;7.20;;;;;;;4.64;84.63;97507.81;102390;1298;75984;-26